Upper Nyack, New York
Current Conditions -  °F | °C
As of 2:56 PM on Sunday 25 Jan 2015 (Local Time) from KHPN Reporting Station
Few Clouds Few Clouds  
Wind Chill: 26°   Ceiling: Unl
Heat Index: 35°   Visibility: 10mi
Dew Point: 12°   Wind: 14mph
Humidity: 39%   Direction: 320°NW
Pressure: 29.76"   Gusts: 22mph
Location:  41.0938°N, 73.9254°W
Report Text: KHPN 251956Z 32012G19KT 10SM FEW100 02/M11 A2976 RMK AO2 PK WND 31026/1913 SLP085 T00171111 $
Loading
Personal Weather Stations






























Interactive Weather Map New forecast layout! Learn more

10-Day Weather Forecast

Advertisements
Track Severe Weather on mobile